Terminal Aerodrome Forecast
Issued by NWS Cleveland, OH

Home | Current Version | Previous Version | Text Only | Print | Product List | Glossary On
Versions: 1 2 3 4 5 6 7 8 9 10 11 12 13 14 15 16 17 18 19 20 21 22 23 24 25 26 27 28 29 30 31
273
FTUS41 KCLE 282107 AAC
TAFCLE
TAF AMD
KCLE 282107Z 2821/2924 05005KT P6SM OVC012
     FM290700 02005KT 4SM -DZ BR OVC003
     FM291400 01006KT P6SM BKN008 OVC015
     FM291700 36007KT P6SM OVC015=

USA.gov is the U.S. government's official web portal to all federal, state and local government web resources and services.